Time;durP1;ratioP1;P1;durP2;ratioP2;P2;SDS_P1;SDS_P2;PMS_P1;PMS_P2;Temp;Humidity;BMP_temperature;BMP_pressure;BME280_temperature;BME280_humidity;BME280_pressure;Samples;Min_cycle;Max_cycle;Signal;HPM_P1;HPM_P2
2023/03/26 00:00:43;;;;;;;;;;;10.20;78.40;;;;;;9176525;19;19922;-64
2023/03/26 00:03:52;;;;;;;;;;;10.20;78.40;;;;;;9181916;19;19942;-63
2023/03/26 00:06:58;;;;;;;;;;;10.10;78.40;;;;;;9181547;19;20257;-63
2023/03/26 00:10:02;;;;;;;;;;;10.10;78.40;;;;;;9176785;19;19925;-63
2023/03/26 00:13:08;;;;;;;;;;;10.10;78.40;;;;;;9179319;19;20029;-63
2023/03/26 00:16:12;;;;;;;;;;;10.10;78.40;;;;;;9180060;19;19954;-63
2023/03/26 00:19:21;;;;;;;;;;;10.10;78.40;;;;;;9178114;19;19938;-63
2023/03/26 00:22:25;;;;;;;;;;;10.10;78.40;;;;;;9181188;19;19915;-63
2023/03/26 00:25:32;;;;;;;;;;;10.10;78.40;;;;;;9179498;19;20353;-63
2023/03/26 00:28:39;;;;;;;;;;;10.00;79.00;;;;;;9180682;19;19925;-63
2023/03/26 00:31:45;;;;;;;;;;;10.00;78.70;;;;;;9180575;19;19915;-63
2023/03/26 00:34:50;;;;;;;;;;;10.00;78.50;;;;;;9179392;19;19925;-63
2023/03/26 00:37:57;;;;;;;;;;;10.00;78.40;;;;;;9178896;19;19915;-63
2023/03/26 00:41:05;;;;;;;;;;;10.00;78.40;;;;;;9175439;19;20499;-63
2023/03/26 00:44:11;;;;;;;;;;;10.00;78.50;;;;;;9175600;19;19911;-63
2023/03/26 00:47:14;;;;;;;;;;;10.00;78.50;;;;;;9177027;19;20362;-63
2023/03/26 00:50:23;;;;;;;;;;;10.00;78.50;;;;;;9180548;19;19926;-63
2023/03/26 00:53:26;;;;;;;;;;;10.00;78.50;;;;;;9179618;19;19918;-63
2023/03/26 00:56:33;;;;;;;;;;;10.00;78.50;;;;;;9180105;19;20261;-63
2023/03/26 00:59:37;;;;;;;;;;;10.00;78.50;;;;;;9178534;19;19918;-63
2023/03/26 01:02:43;;;;;;;;;;;10.00;78.60;;;;;;9179514;19;19915;-62
2023/03/26 01:05:53;;;;;;;;;;;9.90;78.50;;;;;;9176753;19;19927;-62
2023/03/26 01:09:03;;;;;;;;;;;9.90;78.50;;;;;;9176079;19;19919;-63
2023/03/26 01:12:08;;;;;;;;;;;9.90;78.50;;;;;;9180173;19;19925;-62
2023/03/26 01:15:15;;;;;;;;;;;9.90;78.50;;;;;;9179176;19;20281;-62
2023/03/26 01:18:20;;;;;;;;;;;9.90;78.50;;;;;;9177211;19;19951;-62
2023/03/26 01:21:37;;;;;;;;;;;9.90;78.60;;;;;;9179060;19;19978;-62
2023/03/26 01:24:51;;;;;;;;;;;9.90;78.50;;;;;;9178424;19;19919;-63
2023/03/26 01:27:56;;;;;;;;;;;9.90;78.60;;;;;;9177908;19;19926;-63
2023/03/26 01:31:08;;;;;;;;;;;9.90;78.60;;;;;;9178980;19;19926;-63
2023/03/26 01:34:16;;;;;;;;;;;9.90;78.60;;;;;;9176846;19;20260;-63
2023/03/26 01:37:26;;;;;;;;;;;9.90;78.60;;;;;;9176817;19;19918;-62
2023/03/26 01:40:37;;;;;;;;;;;9.90;78.60;;;;;;9174079;19;19910;-63
2023/03/26 01:43:46;;;;;;;;;;;9.90;78.50;;;;;;9173333;19;20348;-63
2023/03/26 01:46:50;;;;;;;;;;;9.90;78.50;;;;;;9176321;19;19923;-62
2023/03/26 01:49:56;;;;;;;;;;;9.90;78.60;;;;;;9177925;19;20378;-63
2023/03/26 01:53:00;;;;;;;;;;;9.90;78.50;;;;;;9177256;19;19915;-63
2023/03/26 01:56:12;;;;;;;;;;;9.90;78.50;;;;;;9178013;19;19927;-63
2023/03/26 01:59:22;;;;;;;;;;;9.90;78.50;;;;;;9180847;19;19923;-63
2023/03/26 02:02:31;;;;;;;;;;;9.90;78.60;;;;;;9184634;19;19918;-63
2023/03/26 02:05:38;;;;;;;;;;;9.90;78.50;;;;;;9185689;19;19926;-63
2023/03/26 02:08:46;;;;;;;;;;;9.90;78.50;;;;;;9184224;19;20455;-63
2023/03/26 02:11:52;;;;;;;;;;;9.90;78.60;;;;;;9183493;19;19914;-63
2023/03/26 02:15:00;;;;;;;;;;;9.90;78.60;;;;;;9185011;19;20391;-64
2023/03/26 02:18:04;;;;;;;;;;;9.90;78.60;;;;;;9183235;19;20317;-63
2023/03/26 02:21:12;;;;;;;;;;;9.80;78.50;;;;;;9181620;19;19915;-63
2023/03/26 02:24:17;;;;;;;;;;;9.90;78.60;;;;;;9183259;19;20581;-63
2023/03/26 02:27:26;;;;;;;;;;;9.90;79.30;;;;;;9183333;19;19934;-63
2023/03/26 02:30:32;;;;;;;;;;;9.80;78.60;;;;;;9183016;19;19941;-63
2023/03/26 02:33:39;;;;;;;;;;;9.80;78.60;;;;;;9183069;19;20343;-63
2023/03/26 02:36:43;;;;;;;;;;;9.80;78.60;;;;;;9180610;19;19918;-63
2023/03/26 02:39:49;;;;;;;;;;;9.80;78.60;;;;;;9181698;19;19919;-63
2023/03/26 02:43:04;;;;;;;;;;;9.80;78.60;;;;;;9177734;19;19925;-63
2023/03/26 02:46:11;;;;;;;;;;;9.80;78.60;;;;;;9183328;19;19914;-63
2023/03/26 02:49:32;;;;;;;;;;;9.80;78.70;;;;;;9182298;19;19929;-63
2023/03/26 02:52:38;;;;;;;;;;;9.80;78.60;;;;;;9182175;19;19951;-63
2023/03/26 02:55:43;;;;;;;;;;;9.80;78.60;;;;;;9182113;19;19986;-63
2023/03/26 02:58:51;;;;;;;;;;;9.80;78.70;;;;;;9181342;19;19930;-63
2023/03/26 03:01:54;;;;;;;;;;;9.80;78.70;;;;;;9182673;19;19921;-63
2023/03/26 03:05:04;;;;;;;;;;;9.80;78.70;;;;;;9181979;19;19918;-62
2023/03/26 03:08:10;;;;;;;;;;;9.70;78.60;;;;;;9182147;19;20340;-63
2023/03/26 03:11:23;;;;;;;;;;;9.70;78.60;;;;;;9179588;19;20787;-63
2023/03/26 03:14:30;;;;;;;;;;;9.70;78.60;;;;;;9181937;19;19925;-63
2023/03/26 03:17:36;;;;;;;;;;;9.70;78.70;;;;;;9181709;19;19926;-63
2023/03/26 03:20:40;;;;;;;;;;;9.70;78.70;;;;;;9181781;19;19957;-63
2023/03/26 03:23:46;;;;;;;;;;;9.70;78.70;;;;;;9182153;19;20634;-63
2023/03/26 03:26:53;;;;;;;;;;;9.60;78.70;;;;;;9182971;19;19923;-63
2023/03/26 03:30:30;;;;;;;;;;;9.60;78.70;;;;;;9182314;19;19914;-63
2023/03/26 03:33:47;;;;;;;;;;;9.60;78.70;;;;;;9181775;19;19956;-63
2023/03/26 03:36:54;;;;;;;;;;;9.60;78.70;;;;;;9180801;19;19918;-62
2023/03/26 03:40:11;;;;;;;;;;;9.50;78.70;;;;;;9178904;19;19914;-63
2023/03/26 03:43:18;;;;;;;;;;;9.50;78.70;;;;;;9175041;19;19915;-63
2023/03/26 03:46:41;;;;;;;;;;;9.50;78.70;;;;;;9180589;19;20118;-63
2023/03/26 03:49:48;;;;;;;;;;;9.50;78.80;;;;;;9180024;19;19919;-63
2023/03/26 03:52:52;;;;;;;;;;;9.40;78.70;;;;;;9182333;19;19911;-62
2023/03/26 03:56:00;;;;;;;;;;;9.40;78.70;;;;;;9179164;19;19919;-62
2023/03/26 03:59:24;;;;;;;;;;;9.40;78.80;;;;;;9180497;19;19945;-62
2023/03/26 04:02:33;;;;;;;;;;;9.40;78.80;;;;;;9180385;19;19927;-63
2023/03/26 04:05:40;;;;;;;;;;;9.40;78.90;;;;;;9181381;19;19955;-62
2023/03/26 04:08:46;;;;;;;;;;;9.40;78.90;;;;;;9179649;19;19911;-63
2023/03/26 04:11:51;;;;;;;;;;;9.40;78.90;;;;;;9179443;19;20337;-62
2023/03/26 04:15:19;;;;;;;;;;;9.30;78.80;;;;;;9179592;19;19923;-63
2023/03/26 04:18:26;;;;;;;;;;;9.30;78.90;;;;;;9178205;19;20253;-63
2023/03/26 04:21:36;;;;;;;;;;;9.30;78.80;;;;;;9175267;19;20340;-63
2023/03/26 04:24:41;;;;;;;;;;;9.30;78.80;;;;;;9179589;19;19938;-63
2023/03/26 04:28:25;;;;;;;;;;;9.30;78.90;;;;;;9179339;19;20651;-63
2023/03/26 04:31:41;;;;;;;;;;;9.30;78.90;;;;;;9178793;19;19919;-63
2023/03/26 04:34:51;;;;;;;;;;;9.30;78.90;;;;;;9179530;19;20269;-64
2023/03/26 04:37:59;;;;;;;;;;;9.40;79.00;;;;;;9178888;19;19997;-64
2023/03/26 04:41:10;;;;;;;;;;;9.40;79.00;;;;;;9176221;19;20253;-63
2023/03/26 04:44:34;;;;;;;;;;;9.40;78.90;;;;;;9174621;19;19919;-63
2023/03/26 04:47:47;;;;;;;;;;;9.40;79.00;;;;;;9178865;19;19923;-64
2023/03/26 04:50:53;;;;;;;;;;;9.40;79.00;;;;;;9176605;19;20015;-63
2023/03/26 04:54:01;;;;;;;;;;;9.40;79.00;;;;;;9177978;19;20337;-63
2023/03/26 04:57:31;;;;;;;;;;;9.30;78.90;;;;;;9178622;19;19915;-64
2023/03/26 05:00:50;;;;;;;;;;;9.40;79.00;;;;;;9175691;19;19919;-64
2023/03/26 05:03:54;;;;;;;;;;;9.40;79.00;;;;;;9177600;19;19929;-63
2023/03/26 05:07:03;;;;;;;;;;;9.40;79.00;;;;;;9177874;19;19915;-64
2023/03/26 05:10:19;;;;;;;;;;;9.40;79.00;;;;;;9178060;19;19989;-64
2023/03/26 05:13:29;;;;;;;;;;;9.40;79.00;;;;;;9178313;19;19923;-63
2023/03/26 05:16:40;;;;;;;;;;;9.40;79.00;;;;;;9177548;19;19915;-63
2023/03/26 05:19:47;;;;;;;;;;;9.40;79.00;;;;;;9176248;19;19922;-63
2023/03/26 05:22:54;;;;;;;;;;;9.40;79.00;;;;;;9177236;19;19919;-63
2023/03/26 05:26:10;;;;;;;;;;;9.40;79.00;;;;;;9177701;19;19933;-63
2023/03/26 05:29:16;;;;;;;;;;;9.40;79.00;;;;;;9177609;19;19952;-63
2023/03/26 05:32:26;;;;;;;;;;;9.40;79.00;;;;;;9174672;19;19921;-63
2023/03/26 05:35:29;;;;;;;;;;;9.40;79.00;;;;;;9178602;19;19914;-63
2023/03/26 05:38:37;;;;;;;;;;;9.40;79.00;;;;;;9177114;19;20018;-63
2023/03/26 05:41:43;;;;;;;;;;;9.50;79.10;;;;;;9173450;19;19911;-63
2023/03/26 05:44:49;;;;;;;;;;;9.40;79.00;;;;;;9171368;19;20006;-63
2023/03/26 05:48:00;;;;;;;;;;;9.50;79.10;;;;;;9174842;19;20329;-64
2023/03/26 05:51:06;;;;;;;;;;;9.50;79.10;;;;;;9176186;19;19915;-63
2023/03/26 05:54:12;;;;;;;;;;;9.50;79.10;;;;;;9176535;19;20412;-63
2023/03/26 05:57:38;;;;;;;;;;;9.50;79.10;;;;;;9177586;19;20325;-63
2023/03/26 06:01:07;;;;;;;;;;;9.50;79.10;;;;;;9173505;19;19983;-64
2023/03/26 06:04:33;;;;;;;;;;;9.50;79.10;;;;;;9177320;19;19926;-63
2023/03/26 06:07:57;;;;;;;;;;;9.50;79.10;;;;;;9176515;19;19922;-64
2023/03/26 06:11:11;;;;;;;;;;;9.50;79.20;;;;;;9176826;19;20329;-63
2023/03/26 06:14:15;;;;;;;;;;;9.50;79.10;;;;;;9174958;19;20192;-63
2023/03/26 06:17:41;;;;;;;;;;;9.50;79.10;;;;;;9176208;19;19922;-64
2023/03/26 06:21:04;;;;;;;;;;;9.50;79.10;;;;;;9174767;19;19927;-63
2023/03/26 06:24:34;;;;;;;;;;;9.50;79.20;;;;;;9174536;19;20629;-64
2023/03/26 06:27:40;;;;;;;;;;;9.50;79.20;;;;;;9176951;19;19957;-64
2023/03/26 06:31:06;;;;;;;;;;;9.50;79.20;;;;;;9175812;19;20261;-63
2023/03/26 06:34:13;;;;;;;;;;;9.50;79.20;;;;;;9176655;19;19915;-64
2023/03/26 06:37:19;;;;;;;;;;;9.50;79.20;;;;;;9175548;19;19922;-63
2023/03/26 06:40:24;;;;;;;;;;;9.60;79.30;;;;;;9173488;19;19983;-64
2023/03/26 06:44:07;;;;;;;;;;;9.60;79.90;;;;;;9165941;19;19922;-64
2023/03/26 06:47:49;;;;;;;;;;;9.60;79.30;;;;;;9184109;19;20268;-63
2023/03/26 06:51:21;;;;;;;;;;;9.60;79.30;;;;;;9179669;19;19919;-63
2023/03/26 06:54:53;;;;;;;;;;;9.60;79.30;;;;;;9180975;19;20365;-64
2023/03/26 06:58:22;;;;;;;;;;;9.60;79.30;;;;;;9181267;19;19929;-64
2023/03/26 07:01:47;;;;;;;;;;;9.60;79.30;;;;;;9181132;19;20291;-64
2023/03/26 07:05:11;;;;;;;;;;;9.70;79.40;;;;;;9183801;19;19918;-64
2023/03/26 07:08:34;;;;;;;;;;;9.70;79.40;;;;;;9182006;19;19915;-64
2023/03/26 07:12:15;;;;;;;;;;;9.70;79.40;;;;;;9183145;19;19922;-64
2023/03/26 07:15:37;;;;;;;;;;;9.70;79.40;;;;;;9183311;19;20001;-63
2023/03/26 07:19:04;;;;;;;;;;;9.70;79.40;;;;;;9182888;19;19926;-64
2023/03/26 07:22:15;;;;;;;;;;;9.70;79.40;;;;;;9179984;19;19947;-64
2023/03/26 07:25:40;;;;;;;;;;;9.70;79.40;;;;;;9183062;19;19918;-63
2023/03/26 07:28:58;;;;;;;;;;;9.70;79.40;;;;;;9180006;19;19948;-64
2023/03/26 07:32:20;;;;;;;;;;;9.70;79.50;;;;;;9174902;19;19918;-65
2023/03/26 07:35:31;;;;;;;;;;;9.70;80.10;;;;;;9175858;19;20546;-64
2023/03/26 07:39:05;;;;;;;;;;;9.70;79.50;;;;;;9174340;19;20345;-66
2023/03/26 07:42:34;;;;;;;;;;;9.80;79.50;;;;;;9170324;19;19919;-66
2023/03/26 07:45:59;;;;;;;;;;;9.80;79.50;;;;;;9172258;19;19922;-67
2023/03/26 07:49:16;;;;;;;;;;;9.80;79.50;;;;;;9171659;19;19926;-67
2023/03/26 07:52:41;;;;;;;;;;;9.80;79.50;;;;;;9169410;19;19923;-67
2023/03/26 07:56:10;;;;;;;;;;;9.90;79.60;;;;;;9172364;19;20355;-65
2023/03/26 07:59:50;;;;;;;;;;;9.90;79.50;;;;;;9158072;19;19922;-65
2023/03/26 08:03:23;;;;;;;;;;;9.90;79.50;;;;;;9164702;19;19930;-65
2023/03/26 08:06:51;;;;;;;;;;;9.90;79.50;;;;;;9166401;19;19925;-64
2023/03/26 08:10:12;;;;;;;;;;;9.90;79.50;;;;;;9167839;19;20411;-64
2023/03/26 08:13:32;;;;;;;;;;;10.00;79.50;;;;;;9172526;19;19926;-64
2023/03/26 08:16:38;;;;;;;;;;;10.00;79.50;;;;;;9173815;19;19911;-64
2023/03/26 08:20:04;;;;;;;;;;;10.00;79.50;;;;;;9172675;19;19915;-64
2023/03/26 08:23:13;;;;;;;;;;;10.00;79.40;;;;;;9173293;19;19915;-64
2023/03/26 08:26:28;;;;;;;;;;;10.10;79.40;;;;;;9173607;19;19926;-64
2023/03/26 08:29:36;;;;;;;;;;;10.10;79.40;;;;;;9170141;19;19922;-64
2023/03/26 08:32:42;;;;;;;;;;;10.20;79.40;;;;;;9173410;19;19953;-64
2023/03/26 08:35:46;;;;;;;;;;;10.20;79.40;;;;;;9171185;19;20017;-64
2023/03/26 08:38:54;;;;;;;;;;;10.20;79.40;;;;;;9169133;19;19938;-64
2023/03/26 08:42:13;;;;;;;;;;;10.20;79.40;;;;;;9168840;19;19911;-64
2023/03/26 08:45:35;;;;;;;;;;;10.20;79.30;;;;;;9167030;19;19927;-64
2023/03/26 08:48:59;;;;;;;;;;;10.30;79.40;;;;;;9173381;19;19930;-64
2023/03/26 08:52:21;;;;;;;;;;;10.30;79.30;;;;;;9169772;19;20341;-64
2023/03/26 08:55:35;;;;;;;;;;;10.30;79.30;;;;;;9172541;19;19948;-64
2023/03/26 08:58:56;;;;;;;;;;;10.30;79.40;;;;;;9170754;19;19954;-64
2023/03/26 09:02:17;;;;;;;;;;;10.30;79.30;;;;;;9170470;19;20344;-64
2023/03/26 09:05:47;;;;;;;;;;;10.30;79.30;;;;;;9171503;19;20337;-64
2023/03/26 09:09:15;;;;;;;;;;;10.30;79.40;;;;;;9167350;19;19926;-64
2023/03/26 09:12:42;;;;;;;;;;;10.30;79.40;;;;;;9171647;19;19926;-64
2023/03/26 09:16:04;;;;;;;;;;;10.30;79.40;;;;;;9172885;19;19911;-64
2023/03/26 09:19:25;;;;;;;;;;;10.20;79.30;;;;;;9170798;19;19923;-64
2023/03/26 09:22:41;;;;;;;;;;;10.20;79.30;;;;;;9168728;19;19918;-65
2023/03/26 09:25:54;;;;;;;;;;;10.20;79.30;;;;;;9170885;19;19946;-64
2023/03/26 09:29:13;;;;;;;;;;;10.30;79.40;;;;;;9169890;19;19930;-64
2023/03/26 09:32:38;;;;;;;;;;;10.30;79.40;;;;;;9166390;19;19929;-64
2023/03/26 09:35:51;;;;;;;;;;;10.30;79.40;;;;;;9169249;19;19914;-64
2023/03/26 09:39:01;;;;;;;;;;;10.30;79.30;;;;;;9168768;19;19919;-64
2023/03/26 09:42:18;;;;;;;;;;;10.40;79.40;;;;;;9165441;19;19960;-64
2023/03/26 09:45:34;;;;;;;;;;;10.40;79.30;;;;;;9163678;19;20565;-65
2023/03/26 09:48:52;;;;;;;;;;;10.40;79.30;;;;;;9176532;19;19919;-64
2023/03/26 09:52:17;;;;;;;;;;;10.40;79.30;;;;;;9176563;19;20341;-64
2023/03/26 09:55:34;;;;;;;;;;;10.50;79.30;;;;;;9174548;19;19947;-64
2023/03/26 09:58:52;;;;;;;;;;;10.50;79.20;;;;;;9176165;19;20256;-64
2023/03/26 10:02:03;;;;;;;;;;;10.50;79.20;;;;;;9172391;19;19919;-64
2023/03/26 10:05:20;;;;;;;;;;;10.60;79.30;;;;;;9174134;19;20352;-65
2023/03/26 10:08:33;;;;;;;;;;;10.60;79.20;;;;;;9174358;19;19915;-64
2023/03/26 10:11:52;;;;;;;;;;;10.60;79.20;;;;;;9172960;19;19923;-64
2023/03/26 10:15:03;;;;;;;;;;;10.70;79.20;;;;;;9175627;19;19934;-64
2023/03/26 10:18:16;;;;;;;;;;;10.70;79.20;;;;;;9175945;19;19918;-64
2023/03/26 10:21:39;;;;;;;;;;;10.70;79.20;;;;;;9181598;19;19930;-64
2023/03/26 10:25:00;;;;;;;;;;;10.70;79.20;;;;;;9184213;19;19937;-64
2023/03/26 10:28:19;;;;;;;;;;;10.70;79.10;;;;;;9181934;19;19922;-64
2023/03/26 10:31:36;;;;;;;;;;;10.80;79.20;;;;;;9183302;19;19926;-64
2023/03/26 10:34:50;;;;;;;;;;;10.80;79.20;;;;;;9183275;19;19986;-65
2023/03/26 10:38:06;;;;;;;;;;;10.80;79.10;;;;;;9185592;19;19915;-65
2023/03/26 10:41:13;;;;;;;;;;;10.80;79.00;;;;;;9178376;19;19978;-65
2023/03/26 10:44:34;;;;;;;;;;;10.80;79.10;;;;;;9176563;19;19918;-65
2023/03/26 10:47:49;;;;;;;;;;;10.80;79.60;;;;;;9183043;19;19926;-65
2023/03/26 10:50:58;;;;;;;;;;;10.80;79.00;;;;;;9179049;19;20385;-65
2023/03/26 10:54:07;;;;;;;;;;;10.70;79.00;;;;;;9179399;19;19929;-65
2023/03/26 10:57:17;;;;;;;;;;;10.70;79.00;;;;;;9176891;19;19911;-64
2023/03/26 11:00:24;;;;;;;;;;;10.70;79.00;;;;;;9179988;19;19922;-64
2023/03/26 11:03:43;;;;;;;;;;;10.70;79.00;;;;;;9180063;19;19915;-64
2023/03/26 11:06:50;;;;;;;;;;;10.70;79.00;;;;;;9177759;19;20340;-65
2023/03/26 11:10:00;;;;;;;;;;;10.70;79.00;;;;;;9177145;19;20277;-64
2023/03/26 11:13:09;;;;;;;;;;;10.70;79.00;;;;;;9176827;19;19918;-64
2023/03/26 11:16:19;;;;;;;;;;;10.70;79.00;;;;;;9181785;19;19922;-65
2023/03/26 11:19:28;;;;;;;;;;;10.70;79.00;;;;;;9179351;19;20340;-64
2023/03/26 11:22:40;;;;;;;;;;;10.70;79.00;;;;;;9178730;19;19922;-64
2023/03/26 11:25:55;;;;;;;;;;;10.70;79.10;;;;;;9179314;19;19925;-64
2023/03/26 11:29:23;;;;;;;;;;;10.70;79.00;;;;;;9181961;19;19922;-64
2023/03/26 11:32:40;;;;;;;;;;;10.70;79.00;;;;;;9177996;19;19930;-64
2023/03/26 11:35:50;;;;;;;;;;;10.70;78.90;;;;;;9180910;19;19922;-64
2023/03/26 11:38:56;;;;;;;;;;;10.80;79.00;;;;;;9182415;19;19918;-64
2023/03/26 11:42:09;;;;;;;;;;;10.80;78.90;;;;;;9178510;19;19919;-64
2023/03/26 11:45:22;;;;;;;;;;;10.80;78.90;;;;;;9177280;19;19919;-64
2023/03/26 11:48:31;;;;;;;;;;;10.90;78.90;;;;;;9175893;19;20601;-64
2023/03/26 11:51:38;;;;;;;;;;;10.80;78.80;;;;;;9173423;19;20352;-64
2023/03/26 11:54:47;;;;;;;;;;;10.90;78.80;;;;;;9176261;19;19927;-65
2023/03/26 11:57:53;;;;;;;;;;;10.90;78.80;;;;;;9176215;19;19922;-64
2023/03/26 12:00:59;;;;;;;;;;;10.90;78.80;;;;;;9174253;19;19934;-65
2023/03/26 12:04:05;;;;;;;;;;;10.90;78.70;;;;;;9174555;19;19929;-65
2023/03/26 12:07:16;;;;;;;;;;;10.90;78.70;;;;;;9180899;19;20408;-65
2023/03/26 12:10:32;;;;;;;;;;;10.90;78.70;;;;;;9176133;19;20352;-65
2023/03/26 12:13:40;;;;;;;;;;;10.90;78.70;;;;;;9158514;19;20363;-65
2023/03/26 12:16:57;;;;;;;;;;;10.90;78.60;;;;;;9162244;19;19918;-65
2023/03/26 12:20:22;;;;;;;;;;;11.00;78.70;;;;;;9169355;19;19937;-65
2023/03/26 12:23:37;;;;;;;;;;;11.00;78.70;;;;;;9163660;19;19923;-65
2023/03/26 12:26:45;;;;;;;;;;;11.00;78.60;;;;;;9172749;19;19926;-65
2023/03/26 12:29:53;;;;;;;;;;;11.00;78.50;;;;;;9175637;19;19914;-65
2023/03/26 12:33:02;;;;;;;;;;;11.00;78.50;;;;;;9173144;19;19941;-66
2023/03/26 12:36:17;;;;;;;;;;;11.00;78.50;;;;;;9173188;19;19914;-65
2023/03/26 12:39:30;;;;;;;;;;;11.00;78.50;;;;;;9164075;19;19930;-66
2023/03/26 12:42:55;;;;;;;;;;;11.00;78.50;;;;;;9162938;19;20244;-66
2023/03/26 12:46:24;;;;;;;;;;;11.00;78.50;;;;;;9177492;19;19918;-65
2023/03/26 12:49:50;;;;;;;;;;;11.00;78.40;;;;;;9178595;19;19923;-65
2023/03/26 12:53:01;;;;;;;;;;;11.00;78.50;;;;;;9180428;19;19942;-65
2023/03/26 12:56:16;;;;;;;;;;;11.00;78.40;;;;;;9179819;19;20459;-65
2023/03/26 12:59:33;;;;;;;;;;;11.00;78.40;;;;;;9179895;19;19919;-66
2023/03/26 13:02:51;;;;;;;;;;;11.10;78.50;;;;;;9176452;19;19918;-65
2023/03/26 13:06:06;;;;;;;;;;;11.10;78.40;;;;;;9177961;19;19918;-65
2023/03/26 13:09:24;;;;;;;;;;;11.10;78.30;;;;;;9175322;19;19927;-65
2023/03/26 13:12:35;;;;;;;;;;;11.10;78.30;;;;;;9177448;19;19933;-65
2023/03/26 13:15:41;;;;;;;;;;;11.10;78.20;;;;;;9177676;19;19919;-66
2023/03/26 13:18:48;;;;;;;;;;;11.10;78.30;;;;;;9175684;19;19923;-65
2023/03/26 13:21:59;;;;;;;;;;;11.10;78.20;;;;;;9176825;19;20329;-65
2023/03/26 13:25:10;;;;;;;;;;;11.10;78.10;;;;;;9179400;19;19917;-65
2023/03/26 13:28:22;;;;;;;;;;;11.10;78.10;;;;;;9178942;19;19911;-65
2023/03/26 13:31:31;;;;;;;;;;;11.10;78.10;;;;;;9177659;19;19918;-65
2023/03/26 13:34:38;;;;;;;;;;;11.20;78.20;;;;;;9178146;19;19919;-65
2023/03/26 13:37:48;;;;;;;;;;;11.20;78.10;;;;;;9178891;19;19903;-65
2023/03/26 13:40:57;;;;;;;;;;;11.20;78.10;;;;;;9178171;19;19921;-66
2023/03/26 13:44:08;;;;;;;;;;;11.20;78.00;;;;;;9172912;19;19919;-65
2023/03/26 13:47:14;;;;;;;;;;;11.20;78.60;;;;;;9177178;19;19918;-66
2023/03/26 13:50:23;;;;;;;;;;;11.20;77.90;;;;;;9177713;19;20647;-65
2023/03/26 13:53:29;;;;;;;;;;;11.20;77.90;;;;;;9174853;19;20029;-65
2023/03/26 13:56:40;;;;;;;;;;;11.20;77.90;;;;;;9175845;19;20360;-65
2023/03/26 13:59:51;;;;;;;;;;;11.20;77.90;;;;;;9176672;19;20284;-65
2023/03/26 14:02:58;;;;;;;;;;;11.20;77.80;;;;;;9174802;19;19915;-65
2023/03/26 14:06:05;;;;;;;;;;;11.20;77.80;;;;;;9176444;19;19926;-64
2023/03/26 14:09:14;;;;;;;;;;;11.20;77.80;;;;;;9175154;19;19918;-65
2023/03/26 14:12:25;;;;;;;;;;;11.20;77.70;;;;;;9176634;19;19919;-65
2023/03/26 14:15:36;;;;;;;;;;;11.20;77.70;;;;;;9172245;19;19934;-65
2023/03/26 14:18:45;;;;;;;;;;;11.10;77.60;;;;;;9174750;19;19927;-64
2023/03/26 14:22:01;;;;;;;;;;;11.10;77.60;;;;;;9175405;19;19929;-65
2023/03/26 14:25:15;;;;;;;;;;;11.10;77.70;;;;;;9177129;19;19915;-65
2023/03/26 14:28:31;;;;;;;;;;;11.10;77.60;;;;;;9176420;19;20267;-65
2023/03/26 14:31:40;;;;;;;;;;;11.00;77.50;;;;;;9176007;19;19930;-65
2023/03/26 14:34:52;;;;;;;;;;;11.00;77.50;;;;;;9174304;19;19915;-65
2023/03/26 14:38:07;;;;;;;;;;;11.00;77.50;;;;;;9175823;19;20282;-65
2023/03/26 14:41:23;;;;;;;;;;;11.00;77.50;;;;;;9173864;19;19923;-65
2023/03/26 14:44:46;;;;;;;;;;;11.00;77.50;;;;;;9170553;19;19927;-66
2023/03/26 14:48:10;;;;;;;;;;;11.00;77.40;;;;;;9174065;19;19915;-66
2023/03/26 14:51:20;;;;;;;;;;;11.00;77.40;;;;;;9175042;19;20315;-66
2023/03/26 14:54:27;;;;;;;;;;;10.90;77.20;;;;;;9175748;19;19926;-65
2023/03/26 14:57:39;;;;;;;;;;;10.90;77.30;;;;;;9175028;19;19921;-65
2023/03/26 15:01:00;;;;;;;;;;;10.80;77.20;;;;;;9173116;19;20356;-65
2023/03/26 15:04:22;;;;;;;;;;;10.80;77.20;;;;;;9175123;19;19915;-66
2023/03/26 15:07:43;;;;;;;;;;;10.80;77.20;;;;;;9181073;19;19929;-65
2023/03/26 15:10:54;;;;;;;;;;;10.70;77.10;;;;;;9181022;19;19940;-65
2023/03/26 15:14:05;;;;;;;;;;;10.70;77.10;;;;;;9182887;19;20309;-65
2023/03/26 15:17:20;;;;;;;;;;;10.70;77.10;;;;;;9183523;19;19915;-65
2023/03/26 15:20:49;;;;;;;;;;;10.60;77.00;;;;;;9182227;19;19918;-65
2023/03/26 15:24:13;;;;;;;;;;;10.60;77.10;;;;;;9178820;19;19919;-65
2023/03/26 15:27:34;;;;;;;;;;;10.60;77.00;;;;;;9181486;19;19955;-65
2023/03/26 15:30:53;;;;;;;;;;;10.50;76.90;;;;;;9181159;19;19934;-65
2023/03/26 15:34:24;;;;;;;;;;;10.50;76.90;;;;;;9180818;19;19919;-66
2023/03/26 15:37:42;;;;;;;;;;;10.40;76.90;;;;;;9180694;19;20345;-65
2023/03/26 15:40:56;;;;;;;;;;;10.40;76.80;;;;;;9182575;19;19934;-65
2023/03/26 15:44:12;;;;;;;;;;;10.30;76.80;;;;;;9173742;19;19921;-65
2023/03/26 15:47:43;;;;;;;;;;;10.30;76.80;;;;;;9181986;19;19934;-65
2023/03/26 15:50:52;;;;;;;;;;;10.30;76.90;;;;;;9181865;19;19918;-65
2023/03/26 15:54:01;;;;;;;;;;;10.20;76.80;;;;;;9181706;19;19923;-65
2023/03/26 15:57:15;;;;;;;;;;;10.20;76.80;;;;;;9181827;19;20245;-65
2023/03/26 16:00:23;;;;;;;;;;;10.10;76.70;;;;;;9179997;19;19926;-66
2023/03/26 16:03:33;;;;;;;;;;;10.10;76.80;;;;;;9179603;19;20273;-65
2023/03/26 16:06:45;;;;;;;;;;;10.10;76.70;;;;;;9179366;19;19934;-65
2023/03/26 16:09:55;;;;;;;;;;;10.00;76.60;;;;;;9178928;19;19919;-65
2023/03/26 16:13:17;;;;;;;;;;;10.00;76.60;;;;;;9181379;19;19942;-65
2023/03/26 16:16:24;;;;;;;;;;;9.90;76.60;;;;;;9177759;19;20429;-65
2023/03/26 16:19:44;;;;;;;;;;;9.90;76.60;;;;;;9179745;19;19918;-65
2023/03/26 16:22:56;;;;;;;;;;;9.80;76.50;;;;;;9179016;19;19919;-65
2023/03/26 16:26:12;;;;;;;;;;;9.80;76.60;;;;;;9179189;19;19919;-65
2023/03/26 16:29:17;;;;;;;;;;;9.70;76.60;;;;;;9180840;19;19926;-65
2023/03/26 16:32:27;;;;;;;;;;;9.70;76.50;;;;;;9181250;19;20280;-65
2023/03/26 16:35:38;;;;;;;;;;;9.60;76.40;;;;;;9180890;19;19952;-65
2023/03/26 16:38:50;;;;;;;;;;;9.60;76.40;;;;;;9180258;19;19926;-64
2023/03/26 16:42:12;;;;;;;;;;;9.60;76.40;;;;;;9178496;19;20041;-64
2023/03/26 16:45:22;;;;;;;;;;;9.60;76.50;;;;;;9175948;19;19923;-64
2023/03/26 16:48:32;;;;;;;;;;;9.50;76.40;;;;;;9178434;19;19919;-64
2023/03/26 16:51:54;;;;;;;;;;;9.50;76.40;;;;;;9178148;19;19915;-64
2023/03/26 16:55:04;;;;;;;;;;;9.50;76.40;;;;;;9178379;19;19918;-64
2023/03/26 16:58:14;;;;;;;;;;;9.40;76.30;;;;;;9178908;19;19929;-64
2023/03/26 17:01:26;;;;;;;;;;;9.40;76.30;;;;;;9179996;19;19922;-64
2023/03/26 17:04:34;;;;;;;;;;;9.40;76.30;;;;;;9172690;19;19929;-64
2023/03/26 17:07:39;;;;;;;;;;;9.40;76.20;;;;;;9177571;19;19948;-65
2023/03/26 17:10:48;;;;;;;;;;;9.30;76.20;;;;;;9178138;19;19927;-65
2023/03/26 17:14:02;;;;;;;;;;;9.30;76.20;;;;;;9177909;19;19925;-65
2023/03/26 17:17:21;;;;;;;;;;;9.30;76.10;;;;;;9177943;19;19927;-65
2023/03/26 17:20:35;;;;;;;;;;;9.20;76.10;;;;;;9178931;19;19919;-66
2023/03/26 17:23:49;;;;;;;;;;;9.10;76.10;;;;;;9163382;19;19926;-65
2023/03/26 17:27:02;;;;;;;;;;;9.10;76.00;;;;;;9169977;19;19931;-65
2023/03/26 17:30:23;;;;;;;;;;;9.00;76.00;;;;;;9166282;19;19919;-65
2023/03/26 17:33:33;;;;;;;;;;;9.00;76.00;;;;;;9168503;19;19930;-64
2023/03/26 17:36:45;;;;;;;;;;;8.90;76.00;;;;;;9170629;19;19918;-64
2023/03/26 17:40:11;;;;;;;;;;;8.90;76.00;;;;;;9170512;19;19927;-65
2023/03/26 17:43:43;;;;;;;;;;;8.90;76.00;;;;;;9162709;19;19923;-65
2023/03/26 17:46:47;;;;;;;;;;;8.80;75.90;;;;;;9167846;19;20359;-64
2023/03/26 17:49:56;;;;;;;;;;;8.70;75.90;;;;;;9164924;19;19922;-65
2023/03/26 17:53:03;;;;;;;;;;;8.70;75.90;;;;;;9166311;19;19929;-65
2023/03/26 17:56:15;;;;;;;;;;;8.60;75.80;;;;;;9164645;19;19923;-65
2023/03/26 17:59:22;;;;;;;;;;;8.60;75.80;;;;;;9161325;19;20299;-65
2023/03/26 18:02:33;;;;;;;;;;;8.60;75.90;;;;;;9166770;19;19919;-65
2023/03/26 18:05:39;;;;;;;;;;;8.60;75.80;;;;;;9169145;19;19962;-65
2023/03/26 18:08:55;;;;;;;;;;;8.50;75.80;;;;;;9166134;19;19919;-65
2023/03/26 18:12:05;;;;;;;;;;;8.50;75.80;;;;;;9167378;19;20737;-65
2023/03/26 18:15:30;;;;;;;;;;;8.40;75.70;;;;;;9169872;19;19929;-65
2023/03/26 18:18:37;;;;;;;;;;;8.40;75.70;;;;;;9169031;19;19929;-65
2023/03/26 18:21:43;;;;;;;;;;;8.30;75.70;;;;;;9166924;19;19929;-65
2023/03/26 18:24:49;;;;;;;;;;;8.20;75.70;;;;;;9169574;19;19936;-65
2023/03/26 18:27:58;;;;;;;;;;;8.30;75.80;;;;;;9167537;19;19919;-65
2023/03/26 18:31:08;;;;;;;;;;;8.20;75.70;;;;;;9166551;19;19963;-65
2023/03/26 18:34:17;;;;;;;;;;;8.10;75.60;;;;;;9164975;19;19926;-65
2023/03/26 18:37:24;;;;;;;;;;;8.10;75.60;;;;;;9165076;19;20345;-65
2023/03/26 18:40:33;;;;;;;;;;;8.00;75.60;;;;;;9169140;19;19922;-65
2023/03/26 18:43:37;;;;;;;;;;;8.00;75.60;;;;;;9168047;19;19923;-65
2023/03/26 18:46:53;;;;;;;;;;;7.90;75.60;;;;;;9173106;19;19919;-64
2023/03/26 18:49:58;;;;;;;;;;;7.90;75.60;;;;;;9173980;19;19927;-65
2023/03/26 18:53:04;;;;;;;;;;;7.80;75.50;;;;;;9174178;19;20333;-64